createdAt,value
2018-10-05T14:18:05.433Z,24.40
2018-10-05T14:20:45.243Z,24.60
2018-10-05T14:32:22.810Z,24.80
2018-10-05T14:34:51.428Z,24.80
2018-10-05T14:37:20.710Z,24.70
2018-10-05T14:42:52.062Z,24.60
2018-10-05T14:45:36.189Z,24.50
2018-10-05T14:48:17.511Z,24.50
2018-10-05T14:51:16.061Z,24.50
2018-10-05T14:59:42.923Z,24.50
2018-10-05T15:02:11.682Z,24.50
2018-10-05T15:07:34.227Z,24.30
2018-10-05T15:10:03.824Z,24.40
2018-10-05T15:12:32.401Z,24.40
2018-10-05T15:15:07.603Z,24.40
2018-10-05T15:17:38.305Z,24.40
2018-10-05T15:20:07.992Z,24.40
2018-10-05T15:22:39.984Z,24.40
2018-10-05T15:25:08.669Z,24.40
2018-10-05T15:27:38.861Z,24.40
2018-10-05T15:30:07.801Z,24.40
2018-10-05T15:32:37.259Z,24.30
2018-10-05T15:35:07.442Z,24.30
2018-10-05T15:37:38.042Z,24.30
2018-10-05T15:40:07.714Z,24.30
2018-10-05T15:42:37.125Z,24.30
2018-10-05T15:45:06.212Z,24.30
2018-10-05T15:47:34.849Z,24.20
2018-10-05T15:50:07.325Z,24.20
2018-10-05T15:52:36.019Z,24.10
2018-10-05T15:55:05.480Z,24.10
2018-10-05T15:57:34.136Z,24.20
2018-10-05T16:00:08.391Z,24.20
2018-10-05T16:02:38.904Z,24.10
2018-10-05T16:05:07.638Z,24.00
2018-10-05T16:07:36.495Z,24.10
2018-10-05T16:10:06.494Z,24.10
2018-10-05T16:12:36.196Z,24.10
2018-10-05T16:15:05.806Z,24.10
2018-10-05T16:17:35.565Z,24.10
2018-10-05T16:20:05.349Z,24.00
2018-10-05T16:22:33.997Z,23.90
2018-10-05T16:25:58.386Z,23.90
2018-10-05T16:28:27.032Z,23.90
2018-10-05T16:30:55.836Z,23.80
2018-10-05T16:36:30.482Z,23.70
2018-10-05T16:38:59.431Z,23.60
2018-10-05T16:41:28.016Z,23.50
2018-10-05T16:43:56.794Z,23.50
2018-10-05T16:46:25.437Z,23.40
2018-10-05T16:48:54.052Z,23.20
2018-10-05T16:51:22.950Z,23.10
2018-10-05T16:53:51.541Z,23.20
2018-10-05T16:56:20.057Z,23.20
2018-10-05T16:58:49.413Z,23.20
2018-10-05T17:01:18.816Z,23.10
2018-10-05T17:03:47.642Z,23.10
2018-10-05T17:06:16.260Z,23.10
2018-10-05T17:08:47.945Z,23.00
2018-10-05T17:11:16.614Z,22.90
2018-10-05T17:16:36.829Z,22.80
2018-10-05T17:21:55.103Z,22.70
2018-10-05T17:24:39.998Z,22.60
2018-10-05T17:27:28.404Z,22.60
2018-10-05T18:46:04.428Z,22.40
2018-10-05T18:48:32.956Z,21.40
2018-10-05T18:51:01.498Z,21.30
2018-10-05T18:53:30.645Z,21.30
2018-10-05T18:56:11.315Z,21.30
2018-10-05T18:58:39.812Z,21.20
2018-10-05T19:01:08.451Z,21.20
2018-10-05T19:03:41.273Z,21.20
2018-10-05T19:06:10.161Z,21.20
2018-10-05T19:08:38.678Z,21.10
2018-10-05T19:11:07.251Z,21.10
2018-10-05T19:13:35.854Z,21.00
2018-10-05T19:18:57.507Z,20.90
2018-10-05T19:21:26.049Z,20.90
2018-10-05T19:23:55.182Z,20.80
2018-10-05T19:26:23.803Z,20.80
2018-10-05T19:28:52.322Z,20.80
2018-10-05T19:31:21.141Z,20.80
2018-10-05T19:33:51.440Z,20.70
2018-10-05T19:36:44.042Z,20.70
2018-10-05T19:42:05.028Z,20.70
2018-10-05T19:44:34.133Z,20.60
2018-10-05T19:47:33.666Z,20.60
2018-10-05T19:50:02.260Z,20.60
2018-10-05T19:52:32.478Z,20.70
2018-10-05T19:55:01.841Z,20.60
2018-10-05T19:58:15.217Z,20.60
2018-10-05T20:00:43.887Z,20.50
2018-10-05T20:03:12.825Z,20.50
2018-10-05T20:05:42.090Z,20.50
2018-10-05T20:08:10.740Z,20.50
2018-10-05T20:10:39.958Z,20.50
2018-10-05T20:13:08.452Z,20.50
2018-10-05T20:15:37.034Z,20.40
2018-10-05T20:18:05.818Z,20.40
2018-10-05T20:20:34.219Z,20.30
2018-10-05T20:23:02.906Z,20.20
2018-10-05T20:25:32.160Z,20.10
2018-10-05T20:28:03.724Z,20.10
2018-10-05T20:30:32.305Z,20.00
2018-10-05T20:33:03.912Z,20.00
2018-10-05T20:35:32.583Z,20.00
2018-10-05T20:38:02.175Z,20.00
2018-10-05T20:40:38.771Z,19.90
2018-10-05T20:43:07.287Z,19.80
2018-10-05T20:45:36.642Z,19.80
2018-10-05T20:48:05.256Z,19.80
2018-10-05T20:50:33.845Z,19.80
2018-10-05T20:53:02.656Z,19.80
2018-10-05T20:55:31.337Z,19.80
2018-10-05T20:58:00.638Z,19.80
2018-10-05T21:00:29.265Z,19.80
2018-10-05T21:02:57.884Z,19.80
2018-10-05T21:05:26.376Z,19.70
2018-10-05T21:07:55.641Z,19.70
2018-10-05T21:10:26.044Z,19.60
2018-10-05T21:12:54.732Z,19.50
2018-10-05T21:15:23.870Z,19.40
2018-10-05T21:17:52.528Z,19.40
2018-10-05T21:20:21.753Z,19.40
2018-10-05T21:22:50.633Z,19.30
2018-10-05T21:25:19.236Z,19.20
2018-10-05T21:27:48.752Z,19.20
2018-10-05T21:30:17.429Z,19.20
2018-10-05T21:32:46.129Z,19.20
2018-10-05T21:38:08.117Z,19.20
2018-10-05T21:41:00.186Z,19.20
2018-10-05T21:43:28.949Z,19.20
2018-10-05T21:45:58.626Z,19.10
2018-10-05T21:48:32.289Z,19.10
2018-10-05T21:51:04.709Z,19.10
2018-10-05T21:53:50.368Z,19.10
2018-10-05T21:56:42.798Z,19.10
2018-10-05T21:59:11.580Z,19.00
2018-10-05T22:01:40.294Z,19.00
2018-10-05T22:04:09.185Z,19.00
2018-10-05T22:08:32.886Z,19.00
2018-10-05T22:16:52.534Z,19.20
2018-10-05T22:19:24.251Z,19.20
2018-10-05T22:21:52.876Z,19.20
2018-10-05T22:45:21.430Z,19.00
2018-10-05T22:47:54.710Z,18.90
2018-10-05T22:50:23.504Z,18.90
2018-10-05T22:52:54.164Z,18.90
2018-10-05T22:55:22.842Z,18.80
2018-10-05T22:57:52.562Z,18.70
2018-10-05T23:03:13.930Z,18.70
2018-10-05T23:05:42.668Z,18.60
2018-10-05T23:08:11.152Z,18.60
2018-10-05T23:10:39.650Z,18.50
2018-10-05T23:13:09.276Z,18.40
2018-10-05T23:15:37.788Z,18.40
2018-10-05T23:18:06.401Z,18.40
2018-10-05T23:20:35.104Z,18.40
2018-10-05T23:23:03.751Z,18.30
2018-10-05T23:25:33.778Z,18.30
2018-10-05T23:28:02.365Z,18.20
2018-10-05T23:30:30.851Z,18.20
2018-10-05T23:32:59.434Z,18.20
2018-10-05T23:35:28.539Z,18.20
2018-10-05T23:37:57.057Z,18.10
2018-10-05T23:40:25.629Z,18.10
2018-10-05T23:42:54.183Z,18.10
2018-10-05T23:45:22.762Z,18.10
2018-10-05T23:47:51.278Z,18.20
2018-10-05T23:50:19.865Z,18.20
2018-10-05T23:52:50.241Z,18.10
2018-10-05T23:55:18.934Z,18.10
2018-10-05T23:57:47.996Z,18.10
